sensor_id;sensor_type;location;lat;lon;timestamp;pressure;altitude;pressure_sealevel;temperature;humidity
3444;BME280;1736;52.068;6.968;2023-03-13T00:01:27;99836.00;;;9.28;93.81
3444;BME280;1736;52.068;6.968;2023-03-13T00:03:54;99836.28;;;9.44;93.44
3444;BME280;1736;52.068;6.968;2023-03-13T00:06:21;99832.09;;;9.32;94.68
3444;BME280;1736;52.068;6.968;2023-03-13T00:08:50;99820.97;;;9.29;95.42
3444;BME280;1736;52.068;6.968;2023-03-13T00:11:17;99825.41;;;9.19;96.62
3444;BME280;1736;52.068;6.968;2023-03-13T00:13:43;99810.09;;;9.13;97.34
3444;BME280;1736;52.068;6.968;2023-03-13T00:16:12;99804.28;;;9.09;98.18
3444;BME280;1736;52.068;6.968;2023-03-13T00:18:43;99807.88;;;8.99;99.60
3444;BME280;1736;52.068;6.968;2023-03-13T00:21:10;99791.56;;;8.84;100.00
3444;BME280;1736;52.068;6.968;2023-03-13T00:23:37;99786.59;;;8.81;100.00
3444;BME280;1736;52.068;6.968;2023-03-13T00:26:06;99773.47;;;8.70;100.00
3444;BME280;1736;52.068;6.968;2023-03-13T00:28:34;99767.22;;;8.71;100.00
3444;BME280;1736;52.068;6.968;2023-03-13T00:31:03;99765.53;;;8.70;100.00
3444;BME280;1736;52.068;6.968;2023-03-13T00:33:30;99756.91;;;8.68;100.00
3444;BME280;1736;52.068;6.968;2023-03-13T00:35:58;99747.47;;;8.56;100.00
3444;BME280;1736;52.068;6.968;2023-03-13T00:38:24;99746.22;;;8.60;100.00
3444;BME280;1736;52.068;6.968;2023-03-13T00:40:58;99743.41;;;8.52;100.00
3444;BME280;1736;52.068;6.968;2023-03-13T00:43:26;99738.81;;;8.45;100.00
3444;BME280;1736;52.068;6.968;2023-03-13T00:45:52;99735.47;;;8.33;100.00
3444;BME280;1736;52.068;6.968;2023-03-13T00:48:19;99736.84;;;8.37;100.00
3444;BME280;1736;52.068;6.968;2023-03-13T00:50:45;99726.53;;;8.34;100.00
3444;BME280;1736;52.068;6.968;2023-03-13T00:53:12;99717.09;;;8.41;100.00
3444;BME280;1736;52.068;6.968;2023-03-13T00:55:39;99703.75;;;8.33;100.00
3444;BME280;1736;52.068;6.968;2023-03-13T00:58:05;99698.84;;;8.29;100.00
3444;BME280;1736;52.068;6.968;2023-03-13T01:00:33;99702.63;;;8.36;100.00
3444;BME280;1736;52.068;6.968;2023-03-13T01:03:00;99690.38;;;8.35;100.00
3444;BME280;1736;52.068;6.968;2023-03-13T01:05:27;99689.13;;;8.29;100.00
3444;BME280;1736;52.068;6.968;2023-03-13T01:07:54;99671.88;;;8.25;100.00
3444;BME280;1736;52.068;6.968;2023-03-13T01:10:20;99677.72;;;8.38;100.00
3444;BME280;1736;52.068;6.968;2023-03-13T01:12:47;99672.84;;;8.43;100.00
3444;BME280;1736;52.068;6.968;2023-03-13T01:15:13;99668.13;;;8.37;100.00
3444;BME280;1736;52.068;6.968;2023-03-13T01:17:43;99657.56;;;8.37;100.00
3444;BME280;1736;52.068;6.968;2023-03-13T01:20:11;99645.00;;;8.39;100.00
3444;BME280;1736;52.068;6.968;2023-03-13T01:22:38;99654.19;;;8.35;100.00
3444;BME280;1736;52.068;6.968;2023-03-13T01:25:05;99647.25;;;8.34;100.00
3444;BME280;1736;52.068;6.968;2023-03-13T01:27:32;99629.47;;;8.36;100.00
3444;BME280;1736;52.068;6.968;2023-03-13T01:29:59;99616.94;;;8.38;100.00
3444;BME280;1736;52.068;6.968;2023-03-13T01:32:25;99616.38;;;8.44;100.00
3444;BME280;1736;52.068;6.968;2023-03-13T01:34:53;99608.28;;;8.46;100.00
3444;BME280;1736;52.068;6.968;2023-03-13T01:37:20;99601.91;;;8.39;100.00
3444;BME280;1736;52.068;6.968;2023-03-13T01:39:46;99590.91;;;8.43;100.00
3444;BME280;1736;52.068;6.968;2023-03-13T01:42:13;99583.22;;;8.50;100.00
3444;BME280;1736;52.068;6.968;2023-03-13T01:44:50;99575.88;;;8.53;100.00
3444;BME280;1736;52.068;6.968;2023-03-13T01:47:17;99569.88;;;8.51;100.00
3444;BME280;1736;52.068;6.968;2023-03-13T01:49:44;99565.97;;;8.55;100.00
3444;BME280;1736;52.068;6.968;2023-03-13T01:52:16;99560.69;;;8.55;100.00
3444;BME280;1736;52.068;6.968;2023-03-13T01:54:50;99547.78;;;8.52;100.00
3444;BME280;1736;52.068;6.968;2023-03-13T01:57:20;99530.78;;;8.55;100.00
3444;BME280;1736;52.068;6.968;2023-03-13T01:59:51;99529.53;;;8.49;100.00
3444;BME280;1736;52.068;6.968;2023-03-13T02:02:20;99523.69;;;8.46;100.00
3444;BME280;1736;52.068;6.968;2023-03-13T02:04:49;99517.44;;;8.47;100.00
3444;BME280;1736;52.068;6.968;2023-03-13T02:07:23;99500.59;;;8.48;100.00
3444;BME280;1736;52.068;6.968;2023-03-13T02:09:53;99496.97;;;8.49;100.00
3444;BME280;1736;52.068;6.968;2023-03-13T02:12:26;99495.72;;;8.43;100.00
3444;BME280;1736;52.068;6.968;2023-03-13T02:14:56;99476.66;;;8.49;100.00
3444;BME280;1736;52.068;6.968;2023-03-13T02:17:24;99479.97;;;8.51;100.00
3444;BME280;1736;52.068;6.968;2023-03-13T02:19:52;99463.44;;;8.49;100.00
3444;BME280;1736;52.068;6.968;2023-03-13T02:22:24;99468.34;;;8.44;100.00
3444;BME280;1736;52.068;6.968;2023-03-13T02:24:58;99459.56;;;8.44;100.00
3444;BME280;1736;52.068;6.968;2023-03-13T02:27:28;99467.75;;;8.50;100.00
3444;BME280;1736;52.068;6.968;2023-03-13T02:29:54;99456.34;;;8.50;100.00
3444;BME280;1736;52.068;6.968;2023-03-13T02:32:22;99452.72;;;8.51;100.00
3444;BME280;1736;52.068;6.968;2023-03-13T02:34:52;99441.44;;;8.49;100.00
3444;BME280;1736;52.068;6.968;2023-03-13T02:37:20;99442.69;;;8.54;100.00
3444;BME280;1736;52.068;6.968;2023-03-13T02:39:48;99440.88;;;8.55;100.00
3444;BME280;1736;52.068;6.968;2023-03-13T02:42:17;99437.41;;;8.54;100.00
3444;BME280;1736;52.068;6.968;2023-03-13T02:44:46;99434.88;;;8.62;100.00
3444;BME280;1736;52.068;6.968;2023-03-13T02:47:17;99427.88;;;8.71;100.00
3444;BME280;1736;52.068;6.968;2023-03-13T02:49:44;99409.50;;;8.69;100.00
3444;BME280;1736;52.068;6.968;2023-03-13T02:52:14;99409.13;;;8.64;100.00
3444;BME280;1736;52.068;6.968;2023-03-13T02:54:44;99394.31;;;8.71;100.00
3444;BME280;1736;52.068;6.968;2023-03-13T02:57:13;99394.88;;;8.75;100.00
3444;BME280;1736;52.068;6.968;2023-03-13T02:59:39;99390.69;;;8.72;100.00
3444;BME280;1736;52.068;6.968;2023-03-13T03:02:07;99384.81;;;8.78;100.00
3444;BME280;1736;52.068;6.968;2023-03-13T03:04:34;99367.97;;;8.79;100.00
3444;BME280;1736;52.068;6.968;2023-03-13T03:07:00;99373.25;;;8.79;100.00
3444;BME280;1736;52.068;6.968;2023-03-13T03:09:27;99365.69;;;8.84;100.00
3444;BME280;1736;52.068;6.968;2023-03-13T03:11:54;99350.09;;;8.91;100.00
3444;BME280;1736;52.068;6.968;2023-03-13T03:14:20;99348.41;;;8.90;100.00
3444;BME280;1736;52.068;6.968;2023-03-13T03:16:47;99345.78;;;9.07;100.00
3444;BME280;1736;52.068;6.968;2023-03-13T03:19:15;99340.09;;;9.02;100.00
3444;BME280;1736;52.068;6.968;2023-03-13T03:21:42;99330.72;;;9.08;100.00
3444;BME280;1736;52.068;6.968;2023-03-13T03:24:09;99308.44;;;9.10;100.00
3444;BME280;1736;52.068;6.968;2023-03-13T03:26:35;99317.56;;;9.16;100.00
3444;BME280;1736;52.068;6.968;2023-03-13T03:29:02;99325.88;;;9.21;100.00
3444;BME280;1736;52.068;6.968;2023-03-13T03:31:29;99314.66;;;9.27;100.00
3444;BME280;1736;52.068;6.968;2023-03-13T03:33:56;99315.38;;;9.29;100.00
3444;BME280;1736;52.068;6.968;2023-03-13T03:36:24;99331.47;;;9.35;100.00
3444;BME280;1736;52.068;6.968;2023-03-13T03:38:51;99317.25;;;9.36;100.00
3444;BME280;1736;52.068;6.968;2023-03-13T03:41:18;99314.16;;;9.41;100.00
3444;BME280;1736;52.068;6.968;2023-03-13T03:43:45;99322.31;;;9.47;100.00
3444;BME280;1736;52.068;6.968;2023-03-13T03:46:12;99320.66;;;9.46;100.00
3444;BME280;1736;52.068;6.968;2023-03-13T03:48:39;99340.13;;;9.45;100.00
3444;BME280;1736;52.068;6.968;2023-03-13T03:51:06;99327.59;;;9.47;100.00
3444;BME280;1736;52.068;6.968;2023-03-13T03:53:34;99330.59;;;9.52;100.00
3444;BME280;1736;52.068;6.968;2023-03-13T03:56:01;99331.44;;;9.53;100.00
3444;BME280;1736;52.068;6.968;2023-03-13T03:58:27;99326.66;;;9.56;100.00
3444;BME280;1736;52.068;6.968;2023-03-13T04:00:55;99318.41;;;9.59;100.00
3444;BME280;1736;52.068;6.968;2023-03-13T04:03:22;99317.53;;;9.76;100.00
3444;BME280;1736;52.068;6.968;2023-03-13T04:05:49;99320.47;;;9.73;100.00
3444;BME280;1736;52.068;6.968;2023-03-13T04:08:16;99311.25;;;9.77;100.00
3444;BME280;1736;52.068;6.968;2023-03-13T04:10:45;99308.59;;;9.77;100.00
3444;BME280;1736;52.068;6.968;2023-03-13T04:13:11;99304.66;;;9.81;100.00
3444;BME280;1736;52.068;6.968;2023-03-13T04:15:39;99302.03;;;9.89;100.00
3444;BME280;1736;52.068;6.968;2023-03-13T04:18:06;99289.28;;;9.85;100.00
3444;BME280;1736;52.068;6.968;2023-03-13T04:20:32;99291.94;;;9.85;100.00
3444;BME280;1736;52.068;6.968;2023-03-13T04:22:59;99289.78;;;9.88;100.00
3444;BME280;1736;52.068;6.968;2023-03-13T04:25:26;99287.13;;;9.88;100.00
3444;BME280;1736;52.068;6.968;2023-03-13T04:27:54;99285.84;;;9.92;100.00
3444;BME280;1736;52.068;6.968;2023-03-13T04:30:21;99298.78;;;9.95;100.00
3444;BME280;1736;52.068;6.968;2023-03-13T04:32:47;99292.84;;;10.01;100.00
3444;BME280;1736;52.068;6.968;2023-03-13T04:35:15;99290.03;;;10.03;100.00
3444;BME280;1736;52.068;6.968;2023-03-13T04:37:42;99276.78;;;10.03;100.00
3444;BME280;1736;52.068;6.968;2023-03-13T04:40:09;99273.69;;;10.07;100.00
3444;BME280;1736;52.068;6.968;2023-03-13T04:42:36;99278.03;;;10.16;100.00
3444;BME280;1736;52.068;6.968;2023-03-13T04:45:06;99264.63;;;10.18;100.00
3444;BME280;1736;52.068;6.968;2023-03-13T04:47:34;99271.59;;;10.19;100.00
3444;BME280;1736;52.068;6.968;2023-03-13T04:50:01;99255.38;;;10.22;100.00
3444;BME280;1736;52.068;6.968;2023-03-13T04:52:28;99241.81;;;10.25;100.00
3444;BME280;1736;52.068;6.968;2023-03-13T04:54:54;99250.56;;;10.25;100.00
3444;BME280;1736;52.068;6.968;2023-03-13T04:57:21;99247.59;;;10.28;100.00
3444;BME280;1736;52.068;6.968;2023-03-13T04:59:48;99246.25;;;10.24;100.00
3444;BME280;1736;52.068;6.968;2023-03-13T05:02:16;99247.44;;;10.30;100.00
3444;BME280;1736;52.068;6.968;2023-03-13T05:04:42;99239.34;;;10.31;100.00
3444;BME280;1736;52.068;6.968;2023-03-13T05:07:09;99242.63;;;10.33;100.00
3444;BME280;1736;52.068;6.968;2023-03-13T05:09:35;99240.50;;;10.45;100.00
3444;BME280;1736;52.068;6.968;2023-03-13T05:12:02;99237.69;;;10.46;100.00
3444;BME280;1736;52.068;6.968;2023-03-13T05:14:29;99240.19;;;10.48;100.00
3444;BME280;1736;52.068;6.968;2023-03-13T05:16:56;99237.19;;;10.43;100.00
3444;BME280;1736;52.068;6.968;2023-03-13T05:19:24;99239.03;;;10.50;100.00
3444;BME280;1736;52.068;6.968;2023-03-13T05:21:51;99236.53;;;10.49;100.00
3444;BME280;1736;52.068;6.968;2023-03-13T05:24:18;99229.75;;;10.54;100.00
3444;BME280;1736;52.068;6.968;2023-03-13T05:26:45;99221.63;;;10.56;100.00
3444;BME280;1736;52.068;6.968;2023-03-13T05:29:11;99221.47;;;10.57;100.00
3444;BME280;1736;52.068;6.968;2023-03-13T05:31:38;99222.47;;;10.57;100.00
3444;BME280;1736;52.068;6.968;2023-03-13T05:34:04;99218.66;;;10.59;100.00
3444;BME280;1736;52.068;6.968;2023-03-13T05:36:32;99211.88;;;10.65;100.00
3444;BME280;1736;52.068;6.968;2023-03-13T05:38:59;99209.22;;;10.65;100.00
3444;BME280;1736;52.068;6.968;2023-03-13T05:41:25;99210.88;;;10.66;100.00
3444;BME280;1736;52.068;6.968;2023-03-13T05:43:52;99214.19;;;10.68;100.00
3444;BME280;1736;52.068;6.968;2023-03-13T05:46:19;99211.19;;;10.63;100.00
3444;BME280;1736;52.068;6.968;2023-03-13T05:48:45;99210.03;;;10.65;100.00
3444;BME280;1736;52.068;6.968;2023-03-13T05:51:12;99208.56;;;10.71;100.00
3444;BME280;1736;52.068;6.968;2023-03-13T05:53:40;99192.66;;;10.71;100.00
3444;BME280;1736;52.068;6.968;2023-03-13T05:56:07;99198.97;;;10.78;100.00
3444;BME280;1736;52.068;6.968;2023-03-13T05:58:33;99192.00;;;10.77;100.00
3444;BME280;1736;52.068;6.968;2023-03-13T06:01:05;99205.44;;;10.75;100.00
3444;BME280;1736;52.068;6.968;2023-03-13T06:03:31;99209.09;;;10.74;100.00
3444;BME280;1736;52.068;6.968;2023-03-13T06:05:58;99208.09;;;10.83;100.00
3444;BME280;1736;52.068;6.968;2023-03-13T06:08:25;99201.94;;;10.83;100.00
3444;BME280;1736;52.068;6.968;2023-03-13T06:10:53;99197.31;;;10.85;100.00
3444;BME280;1736;52.068;6.968;2023-03-13T06:13:20;99203.94;;;10.89;100.00
3444;BME280;1736;52.068;6.968;2023-03-13T06:15:50;99196.16;;;10.87;100.00
3444;BME280;1736;52.068;6.968;2023-03-13T06:18:17;99198.97;;;10.94;100.00
3444;BME280;1736;52.068;6.968;2023-03-13T06:20:43;99211.22;;;10.95;100.00
3444;BME280;1736;52.068;6.968;2023-03-13T06:23:10;99215.22;;;10.99;100.00
3444;BME280;1736;52.068;6.968;2023-03-13T06:25:37;99202.94;;;10.98;100.00
3444;BME280;1736;52.068;6.968;2023-03-13T06:28:05;99203.59;;;11.08;100.00
3444;BME280;1736;52.068;6.968;2023-03-13T06:30:31;99190.00;;;11.11;100.00
3444;BME280;1736;52.068;6.968;2023-03-13T06:32:58;99186.50;;;11.10;100.00
3444;BME280;1736;52.068;6.968;2023-03-13T06:35:24;99196.31;;;11.10;100.00
3444;BME280;1736;52.068;6.968;2023-03-13T06:37:51;99209.25;;;11.13;100.00
3444;BME280;1736;52.068;6.968;2023-03-13T06:40:19;99205.91;;;11.19;100.00
3444;BME280;1736;52.068;6.968;2023-03-13T06:42:45;99208.25;;;11.22;100.00
3444;BME280;1736;52.068;6.968;2023-03-13T06:45:13;99193.66;;;11.18;100.00
3444;BME280;1736;52.068;6.968;2023-03-13T06:47:40;99205.06;;;11.26;100.00
3444;BME280;1736;52.068;6.968;2023-03-13T06:50:08;99201.59;;;11.26;100.00
3444;BME280;1736;52.068;6.968;2023-03-13T06:52:35;99206.56;;;11.29;100.00
3444;BME280;1736;52.068;6.968;2023-03-13T06:55:02;99207.56;;;11.28;100.00
3444;BME280;1736;52.068;6.968;2023-03-13T06:57:28;99212.22;;;11.34;100.00
3444;BME280;1736;52.068;6.968;2023-03-13T06:59:55;99210.38;;;11.34;100.00
3444;BME280;1736;52.068;6.968;2023-03-13T07:02:23;99199.56;;;11.36;100.00
3444;BME280;1736;52.068;6.968;2023-03-13T07:04:49;99195.91;;;11.37;100.00
3444;BME280;1736;52.068;6.968;2023-03-13T07:07:16;99198.41;;;11.38;100.00
3444;BME280;1736;52.068;6.968;2023-03-13T07:09:43;99189.25;;;11.49;100.00
3444;BME280;1736;52.068;6.968;2023-03-13T07:12:09;99188.25;;;11.58;100.00
3444;BME280;1736;52.068;6.968;2023-03-13T07:14:36;99176.78;;;11.57;100.00
3444;BME280;1736;52.068;6.968;2023-03-13T07:17:03;99164.50;;;11.56;100.00
3444;BME280;1736;52.068;6.968;2023-03-13T07:19:31;99161.00;;;11.56;100.00
3444;BME280;1736;52.068;6.968;2023-03-13T07:21:57;99160.84;;;11.65;100.00
3444;BME280;1736;52.068;6.968;2023-03-13T07:24:24;99160.00;;;11.65;100.00
3444;BME280;1736;52.068;6.968;2023-03-13T07:26:51;99169.00;;;11.64;100.00
3444;BME280;1736;52.068;6.968;2023-03-13T07:29:17;99164.50;;;11.72;100.00
3444;BME280;1736;52.068;6.968;2023-03-13T07:31:44;99167.78;;;11.74;100.00
3444;BME280;1736;52.068;6.968;2023-03-13T07:34:11;99160.97;;;11.80;100.00
3444;BME280;1736;52.068;6.968;2023-03-13T07:36:39;99159.97;;;11.81;100.00
3444;BME280;1736;52.068;6.968;2023-03-13T07:39:06;99176.75;;;11.81;100.00
3444;BME280;1736;52.068;6.968;2023-03-13T07:41:33;99156.25;;;11.90;100.00
3444;BME280;1736;52.068;6.968;2023-03-13T07:43:59;99162.41;;;11.90;100.00
3444;BME280;1736;52.068;6.968;2023-03-13T07:46:26;99163.25;;;11.91;100.00
3444;BME280;1736;52.068;6.968;2023-03-13T07:48:53;99151.28;;;11.95;100.00
3444;BME280;1736;52.068;6.968;2023-03-13T07:51:21;99171.19;;;11.99;100.00
3444;BME280;1736;52.068;6.968;2023-03-13T07:53:50;99154.09;;;11.93;100.00
3444;BME280;1736;52.068;6.968;2023-03-13T07:56:18;99142.47;;;11.94;100.00
3444;BME280;1736;52.068;6.968;2023-03-13T07:58:45;99157.91;;;11.99;100.00
3444;BME280;1736;52.068;6.968;2023-03-13T08:01:15;99147.25;;;11.99;100.00
3444;BME280;1736;52.068;6.968;2023-03-13T08:03:43;99165.28;;;12.11;100.00
3444;BME280;1736;52.068;6.968;2023-03-13T08:06:12;99158.44;;;12.17;100.00
3444;BME280;1736;52.068;6.968;2023-03-13T08:08:40;99144.16;;;12.18;100.00
3444;BME280;1736;52.068;6.968;2023-03-13T08:11:10;99139.50;;;12.20;100.00
3444;BME280;1736;52.068;6.968;2023-03-13T08:13:37;99156.09;;;12.22;100.00
3444;BME280;1736;52.068;6.968;2023-03-13T08:16:05;99154.09;;;12.24;100.00
3444;BME280;1736;52.068;6.968;2023-03-13T08:18:33;99148.28;;;12.20;100.00
3444;BME280;1736;52.068;6.968;2023-03-13T08:21:01;99149.97;;;12.21;100.00
3444;BME280;1736;52.068;6.968;2023-03-13T08:23:28;99138.91;;;12.32;100.00
3444;BME280;1736;52.068;6.968;2023-03-13T08:25:54;99139.38;;;12.36;100.00
3444;BME280;1736;52.068;6.968;2023-03-13T08:28:22;99134.47;;;12.47;100.00
3444;BME280;1736;52.068;6.968;2023-03-13T08:30:49;99149.19;;;12.58;100.00
3444;BME280;1736;52.068;6.968;2023-03-13T08:33:16;99148.44;;;12.72;100.00
3444;BME280;1736;52.068;6.968;2023-03-13T08:35:42;99148.44;;;12.72;100.00
3444;BME280;1736;52.068;6.968;2023-03-13T08:38:09;99139.44;;;12.73;100.00
3444;BME280;1736;52.068;6.968;2023-03-13T08:40:35;99142.75;;;12.75;100.00
3444;BME280;1736;52.068;6.968;2023-03-13T08:43:02;99151.28;;;12.70;100.00
3444;BME280;1736;52.068;6.968;2023-03-13T08:45:30;99151.16;;;12.64;100.00
3444;BME280;1736;52.068;6.968;2023-03-13T08:47:57;99156.94;;;12.67;100.00
3444;BME280;1736;52.068;6.968;2023-03-13T08:50:23;99162.44;;;12.66;100.00
3444;BME280;1736;52.068;6.968;2023-03-13T08:52:50;99160.06;;;12.71;100.00
3444;BME280;1736;52.068;6.968;2023-03-13T08:55:17;99158.25;;;12.71;100.00
3444;BME280;1736;52.068;6.968;2023-03-13T08:57:43;99146.91;;;12.77;100.00
3444;BME280;1736;52.068;6.968;2023-03-13T09:00:11;99166.28;;;12.86;100.00
3444;BME280;1736;52.068;6.968;2023-03-13T09:02:40;99152.34;;;12.84;100.00
3444;BME280;1736;52.068;6.968;2023-03-13T09:05:07;99147.41;;;12.95;100.00
3444;BME280;1736;52.068;6.968;2023-03-13T09:07:34;99151.84;;;13.03;100.00
3444;BME280;1736;52.068;6.968;2023-03-13T09:10:00;99145.25;;;13.13;100.00
3444;BME280;1736;52.068;6.968;2023-03-13T09:12:29;99142.13;;;13.10;100.00
3444;BME280;1736;52.068;6.968;2023-03-13T09:14:55;99148.75;;;13.14;100.00
3444;BME280;1736;52.068;6.968;2023-03-13T09:17:22;99152.31;;;13.06;100.00
3444;BME280;1736;52.068;6.968;2023-03-13T09:19:50;99134.41;;;13.15;100.00
3444;BME280;1736;52.068;6.968;2023-03-13T09:22:17;99147.66;;;13.23;100.00
3444;BME280;1736;52.068;6.968;2023-03-13T09:24:43;99129.41;;;13.34;100.00
3444;BME280;1736;52.068;6.968;2023-03-13T09:27:10;99130.22;;;13.35;100.00
3444;BME280;1736;52.068;6.968;2023-03-13T09:29:37;99129.75;;;13.60;100.00
3444;BME280;1736;52.068;6.968;2023-03-13T09:32:06;99127.09;;;13.60;99.62
3444;BME280;1736;52.068;6.968;2023-03-13T09:34:33;99131.13;;;13.71;99.12
3444;BME280;1736;52.068;6.968;2023-03-13T09:37:01;99117.91;;;13.63;98.07
3444;BME280;1736;52.068;6.968;2023-03-13T09:39:27;99129.31;;;13.57;99.46
3444;BME280;1736;52.068;6.968;2023-03-13T09:42:00;99131.22;;;13.77;99.04
3444;BME280;1736;52.068;6.968;2023-03-13T09:44:31;99108.56;;;13.88;98.81
3444;BME280;1736;52.068;6.968;2023-03-13T09:47:04;99112.06;;;14.03;97.74
3444;BME280;1736;52.068;6.968;2023-03-13T09:49:33;99104.00;;;14.17;95.94
3444;BME280;1736;52.068;6.968;2023-03-13T09:52:11;99095.03;;;14.04;94.51
3444;BME280;1736;52.068;6.968;2023-03-13T09:54:44;99111.94;;;13.75;98.62
3444;BME280;1736;52.068;6.968;2023-03-13T09:57:16;99117.38;;;13.53;100.00
3444;BME280;1736;52.068;6.968;2023-03-13T09:59:50;99127.56;;;13.35;100.00
3444;BME280;1736;52.068;6.968;2023-03-13T10:02:27;99122.41;;;13.33;100.00
3444;BME280;1736;52.068;6.968;2023-03-13T10:05:02;99138.47;;;13.40;100.00
3444;BME280;1736;52.068;6.968;2023-03-13T10:07:31;99116.44;;;13.60;100.00
3444;BME280;1736;52.068;6.968;2023-03-13T10:09:59;99110.16;;;13.82;100.00
3444;BME280;1736;52.068;6.968;2023-03-13T10:12:27;99111.50;;;14.07;100.00
3444;BME280;1736;52.068;6.968;2023-03-13T10:15:16;99107.44;;;14.26;97.87
3444;BME280;1736;52.068;6.968;2023-03-13T10:17:47;99107.97;;;14.21;96.10
3444;BME280;1736;52.068;6.968;2023-03-13T10:20:20;99102.53;;;14.29;95.15
3444;BME280;1736;52.068;6.968;2023-03-13T10:22:55;99085.31;;;14.32;94.98
3444;BME280;1736;52.068;6.968;2023-03-13T10:25:30;99077.59;;;14.43;95.11
3444;BME280;1736;52.068;6.968;2023-03-13T10:27:57;99095.75;;;14.75;93.79
3444;BME280;1736;52.068;6.968;2023-03-13T10:30:26;99081.84;;;14.80;90.56
3444;BME280;1736;52.068;6.968;2023-03-13T10:32:57;99082.03;;;14.78;88.71
3444;BME280;1736;52.068;6.968;2023-03-13T10:35:30;99060.38;;;14.67;87.29
3444;BME280;1736;52.068;6.968;2023-03-13T10:38:03;99063.78;;;14.82;87.81
3444;BME280;1736;52.068;6.968;2023-03-13T10:40:30;99049.94;;;14.99;86.27
3444;BME280;1736;52.068;6.968;2023-03-13T10:43:03;99058.66;;;15.14;86.25
3444;BME280;1736;52.068;6.968;2023-03-13T10:45:32;99062.78;;;15.17;84.35
3444;BME280;1736;52.068;6.968;2023-03-13T10:48:02;99050.13;;;15.25;83.61
3444;BME280;1736;52.068;6.968;2023-03-13T10:50:33;99046.38;;;15.20;84.95
3444;BME280;1736;52.068;6.968;2023-03-13T10:53:24;99045.19;;;15.29;83.72
3444;BME280;1736;52.068;6.968;2023-03-13T10:55:52;99038.25;;;15.35;82.70
3444;BME280;1736;52.068;6.968;2023-03-13T10:58:22;99049.78;;;15.42;82.45
3444;BME280;1736;52.068;6.968;2023-03-13T11:00:51;99048.34;;;15.39;81.78
3444;BME280;1736;52.068;6.968;2023-03-13T11:03:25;99026.28;;;15.30;81.79
3444;BME280;1736;52.068;6.968;2023-03-13T11:05:55;99038.28;;;15.41;81.05
3444;BME280;1736;52.068;6.968;2023-03-13T11:08:25;99026.78;;;15.41;81.05
3444;BME280;1736;52.068;6.968;2023-03-13T11:10:57;99024.78;;;15.56;80.68
3444;BME280;1736;52.068;6.968;2023-03-13T11:13:29;99035.31;;;15.64;79.29
3444;BME280;1736;52.068;6.968;2023-03-13T11:15:57;99026.22;;;15.58;79.07
3444;BME280;1736;52.068;6.968;2023-03-13T11:18:31;99023.59;;;15.65;79.10
3444;BME280;1736;52.068;6.968;2023-03-13T11:21:03;99031.03;;;15.69;79.19
3444;BME280;1736;52.068;6.968;2023-03-13T11:23:37;99002.69;;;15.94;78.99
3444;BME280;1736;52.068;6.968;2023-03-13T11:26:11;99010.53;;;15.96;77.49
3444;BME280;1736;52.068;6.968;2023-03-13T11:28:48;99019.59;;;15.95;75.77
3444;BME280;1736;52.068;6.968;2023-03-13T11:31:22;99016.50;;;16.04;76.18
3444;BME280;1736;52.068;6.968;2023-03-13T11:33:54;99007.63;;;15.91;75.72
3444;BME280;1736;52.068;6.968;2023-03-13T11:36:31;99003.53;;;16.01;76.78
3444;BME280;1736;52.068;6.968;2023-03-13T11:39:09;98994.06;;;15.99;75.03
3444;BME280;1736;52.068;6.968;2023-03-13T11:41:47;98989.72;;;16.04;74.73
3444;BME280;1736;52.068;6.968;2023-03-13T11:44:29;98994.47;;;15.96;75.85
3444;BME280;1736;52.068;6.968;2023-03-13T11:47:20;98994.09;;;16.12;75.07
3444;BME280;1736;52.068;6.968;2023-03-13T11:52:57;98997.81;;;16.17;74.68
3444;BME280;1736;52.068;6.968;2023-03-13T11:55:42;98978.03;;;16.12;74.50
3444;BME280;1736;52.068;6.968;2023-03-13T11:58:28;98966.94;;;16.21;74.58
3444;BME280;1736;52.068;6.968;2023-03-13T12:01:00;98956.63;;;16.18;73.09
3444;BME280;1736;52.068;6.968;2023-03-13T12:03:35;98953.75;;;16.26;72.01
3444;BME280;1736;52.068;6.968;2023-03-13T12:06:05;98950.44;;;16.31;72.90
3444;BME280;1736;52.068;6.968;2023-03-13T12:08:40;98953.38;;;16.42;72.37
3444;BME280;1736;52.068;6.968;2023-03-13T12:11:14;98946.94;;;16.37;72.34
3444;BME280;1736;52.068;6.968;2023-03-13T12:13:45;98929.06;;;16.44;71.55
3444;BME280;1736;52.068;6.968;2023-03-13T12:16:17;98941.63;;;16.43;71.94
3444;BME280;1736;52.068;6.968;2023-03-13T12:18:45;98941.59;;;16.30;72.61
3444;BME280;1736;52.068;6.968;2023-03-13T12:21:18;98936.47;;;16.09;73.41
3444;BME280;1736;52.068;6.968;2023-03-13T12:23:49;98924.31;;;16.13;73.45
3444;BME280;1736;52.068;6.968;2023-03-13T12:26:22;98929.22;;;16.03;74.97
3444;BME280;1736;52.068;6.968;2023-03-13T12:29:01;98918.34;;;16.05;74.71
3444;BME280;1736;52.068;6.968;2023-03-13T12:31:35;98915.25;;;16.08;75.45
3444;BME280;1736;52.068;6.968;2023-03-13T12:34:11;98908.88;;;16.02;73.87
3444;BME280;1736;52.068;6.968;2023-03-13T12:36:43;98920.19;;;16.24;72.02
3444;BME280;1736;52.068;6.968;2023-03-13T12:39:21;98903.31;;;16.17;72.76
3444;BME280;1736;52.068;6.968;2023-03-13T12:42:05;98896.13;;;16.24;73.45
3444;BME280;1736;52.068;6.968;2023-03-13T12:44:34;98907.00;;;16.48;71.36
3444;BME280;1736;52.068;6.968;2023-03-13T12:47:07;98904.28;;;16.68;70.38
3444;BME280;1736;52.068;6.968;2023-03-13T12:49:58;98892.78;;;16.67;70.00
3444;BME280;1736;52.068;6.968;2023-03-13T12:55:54;98868.03;;;16.78;71.01
3444;BME280;1736;52.068;6.968;2023-03-13T12:58:41;98885.72;;;16.86;69.44
3444;BME280;1736;52.068;6.968;2023-03-13T13:01:13;98888.63;;;16.78;69.42
3444;BME280;1736;52.068;6.968;2023-03-13T13:03:50;98877.88;;;16.84;67.01
3444;BME280;1736;52.068;6.968;2023-03-13T13:06:18;98878.69;;;16.91;66.17
3444;BME280;1736;52.068;6.968;2023-03-13T13:08:47;98858.47;;;16.95;65.50
3444;BME280;1736;52.068;6.968;2023-03-13T13:11:33;98855.78;;;17.02;65.83
3444;BME280;1736;52.068;6.968;2023-03-13T13:14:05;98865.78;;;17.19;66.18
3444;BME280;1736;52.068;6.968;2023-03-13T13:16:53;98846.81;;;17.14;64.88
3444;BME280;1736;52.068;6.968;2023-03-13T13:19:44;98871.50;;;17.29;65.06
3444;BME280;1736;52.068;6.968;2023-03-13T13:22:47;98863.88;;;17.26;65.36
3444;BME280;1736;52.068;6.968;2023-03-13T13:25:33;98858.88;;;17.36;66.54
3444;BME280;1736;52.068;6.968;2023-03-13T13:28:21;98857.25;;;17.35;67.42
3444;BME280;1736;52.068;6.968;2023-03-13T13:30:50;98855.00;;;17.32;67.29
3444;BME280;1736;52.068;6.968;2023-03-13T13:33:38;98864.84;;;17.38;67.30
3444;BME280;1736;52.068;6.968;2023-03-13T13:36:29;98840.59;;;17.27;66.58